Bullard, TX (75757)

10:30 PM CDT on October 24, 2014 (GMT -0500)
Weaver Estates | Change Station
CLOSE
Current Station
Personal Weather Station
Location: Bullard, TX
Elevation: 384 ft
Nearby Weather Stations

Elev 384 ft 32.09 °N, 95.42 °W | Updated 1 minute ago

Clear
Clear
62.4 °F
Feels Like 62.4 °F
N
2.2
Wind Variable Wind from ESE

Today
High -- | Low -- °F
--% Chance of Precip.
Yesterday
High -- | Low -- °F
Precip. -- in
7:31 AM 6:38 PM
New Moon, 2% visible
Pressure 30.11 in
Visibility 10.0 miles
Clouds Clear
Dew Point 61 °F
Humidity 95%
Rainfall 0.00 in
Snow Depth Not available.
UV 0 out of 12
Pollen 1.90 out of 12
Ozone Good
PM2.5 Good
Flu Activity Local Activity
METAR KTYR 250253Z AUTO 15005KT 10SM CLR 18/15 A3012 RMK AO2 SLP196 T01830150 51009

More Conditions Fewer Conditions

Pressure 30.11 in
Visibility 10.0 miles
Clouds Clear
Dew Point 61 °F
Humidity 95%
Rainfall 0.00 in
Snow Depth Not available.
UV 0 out of 12
Pollen 1.90 out of 12
Ozone Good
PM2.5 Good
Flu Activity Local Activity
METAR KTYR 250253Z AUTO 15005KT 10SM CLR 18/15 A3012 RMK AO2 SLP196 T01830150 51009

More Conditions Fewer Conditions

10-Day Weather Forecast

Almanac

Astronomy

Oct. 24, 2014 Rise Set
Actual Time 7:31 AM CDT 6:38 PM CDT
Civil Twilight 7:06 AM CDT 7:03 PM CDT
Nautical Twilight 6:38 AM CDT 7:32 PM CDT
Astronomical Twilight 6:09 AM CDT 8:00 PM CDT
Moon 8:09 AM CDT (10/24) 7:22 PM CDT (10/24)
Length of Visible Light 11h 57m
Length of Day
11h 07m
Tomorrow will be 1m 49s shorter.
New Moon, 2% of the Moon is Illuminated
Today
New Moon
Oct 30
First Quarter
Nov 6
Full
Nov 14
Last Quarter
Nov 22
New

Today's Extremes

State Highs State Lows

Community

WunderPhotos

Upload Photos

1,764,771 photos uploaded!

Nearby

Air Quality

  Air Quality AQ Index Pollutant
Yesterday Good
OZONE
Yesterday Good
PM2.5
Current Good
PM2.5
Current Good
OZONE
Friday Moderate
OZONE
Friday Good
PM10
Saturday Moderate
OZONE
Saturday Good
PM10
Sunday Moderate
OZONE
Sunday Good
PM10
Monday Good
OZONE
Monday Good
PM10
Tuesday Good
OZONE
Tuesday Good
PM10

Snow Depth

Station Depth Elevation
No new snow has been reported.

Earthquake Activity

City Distance Mag. Time & Date
No recent earthquake activity has been reported nearby.
Minimum magnitude displayed is 2.5.

Coastal Water Temperatures

Place Temperature
No Stations Reporting

Nearby Weather Stations